sensor_id;sensor_type;location;lat;lon;timestamp;P1;durP1;ratioP1;P2;durP2;ratioP2
7154;SDS011;3619;53.784;10.440;2023-12-20T00:02:01;193.33;;;186.60;;
7154;SDS011;3619;53.784;10.440;2023-12-20T00:04:28;187.20;;;180.77;;
7154;SDS011;3619;53.784;10.440;2023-12-20T00:06:55;185.23;;;178.83;;
7154;SDS011;3619;53.784;10.440;2023-12-20T00:09:22;171.53;;;165.50;;
7154;SDS011;3619;53.784;10.440;2023-12-20T00:11:48;168.80;;;162.80;;
7154;SDS011;3619;53.784;10.440;2023-12-20T00:14:17;168.57;;;162.57;;
7154;SDS011;3619;53.784;10.440;2023-12-20T00:16:43;177.77;;;171.43;;
7154;SDS011;3619;53.784;10.440;2023-12-20T00:19:10;166.67;;;160.77;;
7154;SDS011;3619;53.784;10.440;2023-12-20T00:21:37;170.67;;;164.60;;
7154;SDS011;3619;53.784;10.440;2023-12-20T00:24:04;174.67;;;168.53;;
7154;SDS011;3619;53.784;10.440;2023-12-20T00:26:31;165.33;;;159.40;;
7154;SDS011;3619;53.784;10.440;2023-12-20T00:28:58;151.30;;;145.80;;
7154;SDS011;3619;53.784;10.440;2023-12-20T00:31:26;156.97;;;151.30;;
7154;SDS011;3619;53.784;10.440;2023-12-20T00:33:53;170.77;;;164.73;;
7154;SDS011;3619;53.784;10.440;2023-12-20T00:36:20;156.63;;;151.07;;
7154;SDS011;3619;53.784;10.440;2023-12-20T00:38:47;149.03;;;143.63;;
7154;SDS011;3619;53.784;10.440;2023-12-20T00:41:15;152.53;;;147.00;;
7154;SDS011;3619;53.784;10.440;2023-12-20T00:43:41;152.50;;;147.00;;
7154;SDS011;3619;53.784;10.440;2023-12-20T00:46:09;159.27;;;153.50;;
7154;SDS011;3619;53.784;10.440;2023-12-20T00:48:37;180.13;;;173.77;;
7154;SDS011;3619;53.784;10.440;2023-12-20T00:51:08;184.00;;;177.50;;
7154;SDS011;3619;53.784;10.440;2023-12-20T00:53:34;160.50;;;154.80;;
7154;SDS011;3619;53.784;10.440;2023-12-20T00:56:01;176.50;;;170.30;;
7154;SDS011;3619;53.784;10.440;2023-12-20T00:58:28;172.33;;;166.27;;
7154;SDS011;3619;53.784;10.440;2023-12-20T01:00:55;159.27;;;153.67;;
7154;SDS011;3619;53.784;10.440;2023-12-20T01:03:23;170.77;;;164.77;;
7154;SDS011;3619;53.784;10.440;2023-12-20T01:05:51;182.43;;;176.10;;
7154;SDS011;3619;53.784;10.440;2023-12-20T01:08:18;175.93;;;169.83;;
7154;SDS011;3619;53.784;10.440;2023-12-20T01:10:45;171.97;;;165.97;;
7154;SDS011;3619;53.784;10.440;2023-12-20T01:13:12;155.90;;;150.40;;
7154;SDS011;3619;53.784;10.440;2023-12-20T01:15:38;161.10;;;155.40;;
7154;SDS011;3619;53.784;10.440;2023-12-20T01:18:05;167.80;;;161.93;;
7154;SDS011;3619;53.784;10.440;2023-12-20T01:20:32;170.47;;;164.47;;
7154;SDS011;3619;53.784;10.440;2023-12-20T01:23:00;160.80;;;155.20;;
7154;SDS011;3619;53.784;10.440;2023-12-20T01:25:27;159.00;;;153.40;;
7154;SDS011;3619;53.784;10.440;2023-12-20T01:27:54;158.40;;;152.80;;
7154;SDS011;3619;53.784;10.440;2023-12-20T01:30:21;151.73;;;146.33;;
7154;SDS011;3619;53.784;10.440;2023-12-20T01:32:47;162.87;;;157.17;;
7154;SDS011;3619;53.784;10.440;2023-12-20T01:35:14;164.63;;;158.83;;
7154;SDS011;3619;53.784;10.440;2023-12-20T01:37:41;166.87;;;160.97;;
7154;SDS011;3619;53.784;10.440;2023-12-20T01:40:10;176.10;;;169.90;;
7154;SDS011;3619;53.784;10.440;2023-12-20T01:42:37;174.67;;;168.50;;
7154;SDS011;3619;53.784;10.440;2023-12-20T01:45:04;157.00;;;151.43;;
7154;SDS011;3619;53.784;10.440;2023-12-20T01:47:31;165.50;;;159.67;;
7154;SDS011;3619;53.784;10.440;2023-12-20T01:49:58;170.73;;;164.67;;
7154;SDS011;3619;53.784;10.440;2023-12-20T01:52:25;163.83;;;158.03;;
7154;SDS011;3619;53.784;10.440;2023-12-20T01:54:53;172.20;;;166.10;;
7154;SDS011;3619;53.784;10.440;2023-12-20T01:57:27;163.33;;;157.57;;
7154;SDS011;3619;53.784;10.440;2023-12-20T01:59:54;166.03;;;160.17;;
7154;SDS011;3619;53.784;10.440;2023-12-20T06:14:21;115.77;;;111.50;;
7154;SDS011;3619;53.784;10.440;2023-12-20T06:16:48;121.70;;;117.20;;
7154;SDS011;3619;53.784;10.440;2023-12-20T06:19:18;119.33;;;114.90;;
7154;SDS011;3619;53.784;10.440;2023-12-20T06:21:47;113.63;;;109.43;;
7154;SDS011;3619;53.784;10.440;2023-12-20T06:24:15;124.97;;;120.33;;
7154;SDS011;3619;53.784;10.440;2023-12-20T06:26:50;122.20;;;117.70;;
7154;SDS011;3619;53.784;10.440;2023-12-20T06:29:17;108.27;;;104.27;;
7154;SDS011;3619;53.784;10.440;2023-12-20T06:31:52;122.37;;;117.93;;
7154;SDS011;3619;53.784;10.440;2023-12-20T06:34:22;120.37;;;115.87;;
7154;SDS011;3619;53.784;10.440;2023-12-20T06:36:51;121.93;;;117.43;;
7154;SDS011;3619;53.784;10.440;2023-12-20T06:39:39;121.37;;;116.77;;
7154;SDS011;3619;53.784;10.440;2023-12-20T06:42:06;116.00;;;111.70;;
7154;SDS011;3619;53.784;10.440;2023-12-20T06:44:33;113.97;;;109.77;;
7154;SDS011;3619;53.784;10.440;2023-12-20T06:47:04;119.30;;;114.83;;
7154;SDS011;3619;53.784;10.440;2023-12-20T06:49:32;122.60;;;118.10;;
7154;SDS011;3619;53.784;10.440;2023-12-20T06:52:11;120.87;;;116.43;;
7154;SDS011;3619;53.784;10.440;2023-12-20T06:54:38;123.30;;;118.80;;
7154;SDS011;3619;53.784;10.440;2023-12-20T06:57:05;113.27;;;109.07;;
7154;SDS011;3619;53.784;10.440;2023-12-20T06:59:43;132.93;;;128.03;;
7154;SDS011;3619;53.784;10.440;2023-12-20T07:06:48;118.40;;;113.90;;
7154;SDS011;3619;53.784;10.440;2023-12-20T07:09:45;124.40;;;119.77;;
7154;SDS011;3619;53.784;10.440;2023-12-20T07:15:40;123.33;;;118.73;;
7154;SDS011;3619;53.784;10.440;2023-12-20T07:18:15;112.97;;;108.80;;
7154;SDS011;3619;53.784;10.440;2023-12-20T07:21:09;107.37;;;103.40;;
7154;SDS011;3619;53.784;10.440;2023-12-20T07:23:44;95.93;;;92.37;;
7154;SDS011;3619;53.784;10.440;2023-12-20T07:26:36;90.30;;;86.90;;
7154;SDS011;3619;53.784;10.440;2023-12-20T07:29:05;104.73;;;100.83;;
7154;SDS011;3619;53.784;10.440;2023-12-20T07:31:39;94.67;;;91.17;;
7154;SDS011;3619;53.784;10.440;2023-12-20T07:34:09;102.27;;;98.47;;
7154;SDS011;3619;53.784;10.440;2023-12-20T07:36:40;107.93;;;103.93;;
7154;SDS011;3619;53.784;10.440;2023-12-20T07:39:20;119.53;;;115.13;;
7154;SDS011;3619;53.784;10.440;2023-12-20T07:41:50;112.20;;;108.00;;
7154;SDS011;3619;53.784;10.440;2023-12-20T07:44:26;119.03;;;114.63;;
7154;SDS011;3619;53.784;10.440;2023-12-20T07:46:57;119.87;;;115.47;;
7154;SDS011;3619;53.784;10.440;2023-12-20T07:49:26;121.73;;;117.23;;
7154;SDS011;3619;53.784;10.440;2023-12-20T07:52:26;128.27;;;123.50;;
7154;SDS011;3619;53.784;10.440;2023-12-20T07:54:55;129.23;;;124.43;;
7154;SDS011;3619;53.784;10.440;2023-12-20T07:57:42;113.93;;;109.70;;
7154;SDS011;3619;53.784;10.440;2023-12-20T08:00:13;111.27;;;107.07;;
7154;SDS011;3619;53.784;10.440;2023-12-20T08:02:42;117.00;;;112.63;;
7154;SDS011;3619;53.784;10.440;2023-12-20T08:05:09;116.77;;;112.37;;
7154;SDS011;3619;53.784;10.440;2023-12-20T08:07:41;121.20;;;116.60;;
7154;SDS011;3619;53.784;10.440;2023-12-20T08:10:14;109.23;;;105.17;;
7154;SDS011;3619;53.784;10.440;2023-12-20T08:12:46;108.53;;;104.50;;
7154;SDS011;3619;53.784;10.440;2023-12-20T08:15:13;102.53;;;98.73;;
7154;SDS011;3619;53.784;10.440;2023-12-20T08:17:46;101.33;;;97.57;;
7154;SDS011;3619;53.784;10.440;2023-12-20T08:21:00;103.50;;;99.70;;
7154;SDS011;3619;53.784;10.440;2023-12-20T08:24:26;89.53;;;86.23;;
7154;SDS011;3619;53.784;10.440;2023-12-20T08:31:26;80.40;;;77.40;;
7154;SDS011;3619;53.784;10.440;2023-12-20T08:33:43;100.27;;;96.67;;
7154;SDS011;3619;53.784;10.440;2023-12-20T08:36:45;85.17;;;82.07;;
7154;SDS011;3619;53.784;10.440;2023-12-20T08:39:39;82.63;;;79.53;;
7154;SDS011;3619;53.784;10.440;2023-12-20T08:42:46;86.23;;;83.03;;
7154;SDS011;3619;53.784;10.440;2023-12-20T08:45:50;92.40;;;89.00;;
7154;SDS011;3619;53.784;10.440;2023-12-20T08:49:44;98.07;;;94.53;;
7154;SDS011;3619;53.784;10.440;2023-12-20T08:51:48;88.53;;;85.33;;
7154;SDS011;3619;53.784;10.440;2023-12-20T08:54:40;81.40;;;78.40;;
7154;SDS011;3619;53.784;10.440;2023-12-20T08:57:28;83.60;;;80.50;;
7154;SDS011;3619;53.784;10.440;2023-12-20T09:06:44;93.10;;;89.70;;
7154;SDS011;3619;53.784;10.440;2023-12-20T09:09:41;104.80;;;101.00;;
7154;SDS011;3619;53.784;10.440;2023-12-20T09:12:17;111.87;;;107.87;;
7154;SDS011;3619;53.784;10.440;2023-12-20T09:17:48;116.73;;;112.57;;
7154;SDS011;3619;53.784;10.440;2023-12-20T09:21:12;106.43;;;102.60;;
7154;SDS011;3619;53.784;10.440;2023-12-20T09:29:25;106.23;;;102.40;;
7154;SDS011;3619;53.784;10.440;2023-12-20T09:30:34;113.03;;;108.97;;
7154;SDS011;3619;53.784;10.440;2023-12-20T09:33:22;101.27;;;97.63;;
7154;SDS011;3619;53.784;10.440;2023-12-20T09:36:15;98.30;;;94.73;;
7154;SDS011;3619;53.784;10.440;2023-12-20T09:39:12;98.03;;;94.53;;
7154;SDS011;3619;53.784;10.440;2023-12-20T09:42:03;121.03;;;116.73;;
7154;SDS011;3619;53.784;10.440;2023-12-20T09:44:59;112.87;;;108.87;;
7154;SDS011;3619;53.784;10.440;2023-12-20T09:47:59;108.50;;;104.60;;
7154;SDS011;3619;53.784;10.440;2023-12-20T10:03:50;79.47;;;76.53;;
7154;SDS011;3619;53.784;10.440;2023-12-20T10:09:46;96.97;;;93.47;;
7154;SDS011;3619;53.784;10.440;2023-12-20T10:13:00;93.93;;;90.53;;
7154;SDS011;3619;53.784;10.440;2023-12-20T10:26:00;100.80;;;97.20;;
7154;SDS011;3619;53.784;10.440;2023-12-20T10:29:49;99.57;;;96.00;;
7154;SDS011;3619;53.784;10.440;2023-12-20T10:31:53;100.17;;;96.60;;
7154;SDS011;3619;53.784;10.440;2023-12-20T10:36:17;96.60;;;93.10;;
7154;SDS011;3619;53.784;10.440;2023-12-20T10:38:20;97.07;;;93.57;;
7154;SDS011;3619;53.784;10.440;2023-12-20T10:44:28;99.40;;;95.80;;
7154;SDS011;3619;53.784;10.440;2023-12-20T10:47:54;102.53;;;98.83;;
7154;SDS011;3619;53.784;10.440;2023-12-20T10:52:01;96.60;;;93.10;;
7154;SDS011;3619;53.784;10.440;2023-12-20T10:54:18;96.43;;;92.93;;
7154;SDS011;3619;53.784;10.440;2023-12-20T11:03:37;105.10;;;101.27;;
7154;SDS011;3619;53.784;10.440;2023-12-20T11:06:40;99.53;;;95.87;;
7154;SDS011;3619;53.784;10.440;2023-12-20T11:09:22;103.17;;;99.37;;
7154;SDS011;3619;53.784;10.440;2023-12-20T11:12:22;97.73;;;94.13;;
7154;SDS011;3619;53.784;10.440;2023-12-20T11:15:31;114.87;;;110.77;;
7154;SDS011;3619;53.784;10.440;2023-12-20T11:21:42;100.40;;;96.80;;
7154;SDS011;3619;53.784;10.440;2023-12-20T11:28:53;102.53;;;98.83;;
7154;SDS011;3619;53.784;10.440;2023-12-20T11:54:29;95.20;;;91.80;;
7154;SDS011;3619;53.784;10.440;2023-12-20T11:56:57;91.57;;;88.27;;
7154;SDS011;3619;53.784;10.440;2023-12-20T11:59:32;84.67;;;81.57;;
7154;SDS011;3619;53.784;10.440;2023-12-20T12:02:01;95.87;;;92.47;;
7154;SDS011;3619;53.784;10.440;2023-12-20T12:04:34;106.63;;;102.87;;
7154;SDS011;3619;53.784;10.440;2023-12-20T12:17:03;96.23;;;92.80;;
7154;SDS011;3619;53.784;10.440;2023-12-20T12:20:01;88.77;;;85.57;;
7154;SDS011;3619;53.784;10.440;2023-12-20T12:22:29;99.03;;;95.53;;
7154;SDS011;3619;53.784;10.440;2023-12-20T12:24:58;104.97;;;101.27;;
7154;SDS011;3619;53.784;10.440;2023-12-20T12:27:25;122.33;;;118.10;;
7154;SDS011;3619;53.784;10.440;2023-12-20T12:30:03;121.73;;;117.50;;
7154;SDS011;3619;53.784;10.440;2023-12-20T12:32:36;122.77;;;118.47;;
7154;SDS011;3619;53.784;10.440;2023-12-20T12:38:06;105.70;;;101.97;;
7154;SDS011;3619;53.784;10.440;2023-12-20T12:40:58;108.60;;;104.80;;
7154;SDS011;3619;53.784;10.440;2023-12-20T12:43:48;110.67;;;106.77;;
7154;SDS011;3619;53.784;10.440;2023-12-20T12:47:58;114.33;;;110.33;;
7154;SDS011;3619;53.784;10.440;2023-12-20T12:49:52;121.10;;;116.90;;
7154;SDS011;3619;53.784;10.440;2023-12-20T12:52:27;115.60;;;111.60;;
7154;SDS011;3619;53.784;10.440;2023-12-20T12:55:39;118.07;;;113.97;;
7154;SDS011;3619;53.784;10.440;2023-12-20T12:58:09;103.70;;;100.00;;
7154;SDS011;3619;53.784;10.440;2023-12-20T13:00:52;97.17;;;93.70;;
7154;SDS011;3619;53.784;10.440;2023-12-20T13:03:41;92.63;;;89.33;;
7154;SDS011;3619;53.784;10.440;2023-12-20T13:09:41;95.40;;;92.00;;
7154;SDS011;3619;53.784;10.440;2023-12-20T13:12:49;106.23;;;102.50;;
7154;SDS011;3619;53.784;10.440;2023-12-20T13:17:38;94.10;;;90.73;;
7154;SDS011;3619;53.784;10.440;2023-12-20T13:18:19;88.33;;;85.13;;
7154;SDS011;3619;53.784;10.440;2023-12-20T13:20:53;101.17;;;97.57;;
7154;SDS011;3619;53.784;10.440;2023-12-20T13:23:43;86.80;;;83.67;;
7154;SDS011;3619;53.784;10.440;2023-12-20T13:26:16;108.37;;;104.57;;
7154;SDS011;3619;53.784;10.440;2023-12-20T13:28:55;87.03;;;83.90;;
7154;SDS011;3619;53.784;10.440;2023-12-20T13:31:40;89.47;;;86.27;;
7154;SDS011;3619;53.784;10.440;2023-12-20T13:34:10;87.27;;;84.10;;
7154;SDS011;3619;53.784;10.440;2023-12-20T13:36:53;73.00;;;70.30;;
7154;SDS011;3619;53.784;10.440;2023-12-20T13:39:27;68.87;;;66.27;;
7154;SDS011;3619;53.784;10.440;2023-12-20T13:41:56;67.13;;;64.63;;
7154;SDS011;3619;53.784;10.440;2023-12-20T13:44:41;81.97;;;78.97;;
7154;SDS011;3619;53.784;10.440;2023-12-20T13:47:14;77.47;;;74.60;;
7154;SDS011;3619;53.784;10.440;2023-12-20T13:49:41;71.90;;;69.20;;
7154;SDS011;3619;53.784;10.440;2023-12-20T13:52:11;65.70;;;63.20;;
7154;SDS011;3619;53.784;10.440;2023-12-20T13:54:42;63.20;;;60.80;;
7154;SDS011;3619;53.784;10.440;2023-12-20T13:57:12;67.80;;;65.27;;
7154;SDS011;3619;53.784;10.440;2023-12-20T13:59:46;63.97;;;61.57;;
7154;SDS011;3619;53.784;10.440;2023-12-20T14:02:29;65.23;;;62.80;;
7154;SDS011;3619;53.784;10.440;2023-12-20T14:05:38;69.03;;;66.43;;
7154;SDS011;3619;53.784;10.440;2023-12-20T14:07:57;80.57;;;77.63;;
7154;SDS011;3619;53.784;10.440;2023-12-20T14:10:27;58.90;;;56.70;;
7154;SDS011;3619;53.784;10.440;2023-12-20T14:12:54;63.20;;;60.80;;
7154;SDS011;3619;53.784;10.440;2023-12-20T14:15:21;60.30;;;58.00;;
7154;SDS011;3619;53.784;10.440;2023-12-20T14:17:54;54.63;;;52.53;;
7154;SDS011;3619;53.784;10.440;2023-12-20T14:20:24;54.07;;;52.00;;
7154;SDS011;3619;53.784;10.440;2023-12-20T14:22:52;52.23;;;50.23;;
7154;SDS011;3619;53.784;10.440;2023-12-20T14:25:23;52.67;;;50.67;;
7154;SDS011;3619;53.784;10.440;2023-12-20T14:30:55;37.53;;;36.13;;
7154;SDS011;3619;53.784;10.440;2023-12-20T14:36:14;48.07;;;46.27;;
7154;SDS011;3619;53.784;10.440;2023-12-20T14:38:47;44.83;;;43.13;;
7154;SDS011;3619;53.784;10.440;2023-12-20T14:44:45;28.43;;;27.07;;
7154;SDS011;3619;53.784;10.440;2023-12-20T14:47:26;33.00;;;31.77;;
7154;SDS011;3619;53.784;10.440;2023-12-20T14:50:06;35.67;;;34.27;;
7154;SDS011;3619;53.784;10.440;2023-12-20T14:52:57;43.47;;;41.80;;
7154;SDS011;3619;53.784;10.440;2023-12-20T14:55:42;58.00;;;55.80;;
7154;SDS011;3619;53.784;10.440;2023-12-20T14:58:23;53.67;;;51.67;;
7154;SDS011;3619;53.784;10.440;2023-12-20T15:01:21;56.30;;;54.17;;
7154;SDS011;3619;53.784;10.440;2023-12-20T15:04:21;60.80;;;58.50;;
7154;SDS011;3619;53.784;10.440;2023-12-20T15:07:19;64.30;;;61.90;;
7154;SDS011;3619;53.784;10.440;2023-12-20T15:10:00;47.13;;;45.33;;
7154;SDS011;3619;53.784;10.440;2023-12-20T15:12:29;50.20;;;48.30;;
7154;SDS011;3619;53.784;10.440;2023-12-20T15:15:04;59.73;;;57.47;;
7154;SDS011;3619;53.784;10.440;2023-12-20T15:17:36;59.53;;;57.23;;
7154;SDS011;3619;53.784;10.440;2023-12-20T15:20:25;53.47;;;51.43;;
7154;SDS011;3619;53.784;10.440;2023-12-20T15:23:13;58.10;;;55.90;;
7154;SDS011;3619;53.784;10.440;2023-12-20T15:25:59;57.00;;;54.80;;
7154;SDS011;3619;53.784;10.440;2023-12-20T15:28:54;56.50;;;54.37;;
7154;SDS011;3619;53.784;10.440;2023-12-20T15:31:31;48.17;;;46.33;;
7154;SDS011;3619;53.784;10.440;2023-12-20T15:40:39;49.10;;;47.20;;
7154;SDS011;3619;53.784;10.440;2023-12-20T15:43:16;55.17;;;53.07;;
7154;SDS011;3619;53.784;10.440;2023-12-20T15:45:50;57.73;;;55.53;;
7154;SDS011;3619;53.784;10.440;2023-12-20T15:48:34;59.03;;;56.77;;
7154;SDS011;3619;53.784;10.440;2023-12-20T15:51:05;60.73;;;58.43;;
7154;SDS011;3619;53.784;10.440;2023-12-20T15:53:49;66.73;;;64.23;;
7154;SDS011;3619;53.784;10.440;2023-12-20T15:56:17;69.73;;;67.13;;
7154;SDS011;3619;53.784;10.440;2023-12-20T15:58:50;71.23;;;68.53;;
7154;SDS011;3619;53.784;10.440;2023-12-20T16:01:22;67.03;;;64.53;;
7154;SDS011;3619;53.784;10.440;2023-12-20T16:03:49;70.67;;;68.07;;
7154;SDS011;3619;53.784;10.440;2023-12-20T16:06:22;74.87;;;72.07;;
7154;SDS011;3619;53.784;10.440;2023-12-20T16:09:05;70.67;;;68.07;;
7154;SDS011;3619;53.784;10.440;2023-12-20T16:11:32;66.30;;;63.80;;
7154;SDS011;3619;53.784;10.440;2023-12-20T16:14:11;64.83;;;62.37;;
7154;SDS011;3619;53.784;10.440;2023-12-20T16:16:55;68.77;;;66.17;;
7154;SDS011;3619;53.784;10.440;2023-12-20T16:19:40;68.13;;;65.57;;
7154;SDS011;3619;53.784;10.440;2023-12-20T16:25:23;71.33;;;68.67;;
7154;SDS011;3619;53.784;10.440;2023-12-20T16:28:25;78.47;;;75.57;;
7154;SDS011;3619;53.784;10.440;2023-12-20T16:31:29;75.90;;;73.10;;
7154;SDS011;3619;53.784;10.440;2023-12-20T16:37:24;74.87;;;72.07;;
7154;SDS011;3619;53.784;10.440;2023-12-20T16:43:25;68.33;;;65.77;;
7154;SDS011;3619;53.784;10.440;2023-12-20T16:46:01;65.67;;;63.17;;
7154;SDS011;3619;53.784;10.440;2023-12-20T16:48:38;56.57;;;54.40;;
7154;SDS011;3619;53.784;10.440;2023-12-20T16:51:30;64.50;;;62.10;;
7154;SDS011;3619;53.784;10.440;2023-12-20T16:54:05;60.80;;;58.50;;
7154;SDS011;3619;53.784;10.440;2023-12-20T16:56:34;63.47;;;61.07;;
7154;SDS011;3619;53.784;10.440;2023-12-20T16:59:03;56.03;;;53.90;;
7154;SDS011;3619;53.784;10.440;2023-12-20T17:01:37;68.13;;;65.57;;
7154;SDS011;3619;53.784;10.440;2023-12-20T17:04:20;65.70;;;63.20;;
7154;SDS011;3619;53.784;10.440;2023-12-20T17:07:28;59.90;;;57.60;;
7154;SDS011;3619;53.784;10.440;2023-12-20T17:14:38;60.07;;;57.77;;
7154;SDS011;3619;53.784;10.440;2023-12-20T17:16:39;62.83;;;60.43;;
7154;SDS011;3619;53.784;10.440;2023-12-20T17:19:23;62.87;;;60.47;;
7154;SDS011;3619;53.784;10.440;2023-12-20T17:22:00;66.37;;;63.87;;
7154;SDS011;3619;53.784;10.440;2023-12-20T17:24:51;71.73;;;69.03;;
7154;SDS011;3619;53.784;10.440;2023-12-20T17:27:37;71.73;;;69.03;;
7154;SDS011;3619;53.784;10.440;2023-12-20T17:30:19;77.00;;;74.17;;
7154;SDS011;3619;53.784;10.440;2023-12-20T17:32:49;63.83;;;61.43;;
7154;SDS011;3619;53.784;10.440;2023-12-20T17:35:33;70.83;;;68.23;;
7154;SDS011;3619;53.784;10.440;2023-12-20T17:38:07;58.17;;;55.97;;
7154;SDS011;3619;53.784;10.440;2023-12-20T17:40:36;65.03;;;62.60;;
7154;SDS011;3619;53.784;10.440;2023-12-20T17:43:06;70.83;;;68.23;;
7154;SDS011;3619;53.784;10.440;2023-12-20T17:45:34;70.43;;;67.83;;
7154;SDS011;3619;53.784;10.440;2023-12-20T17:54:46;68.13;;;65.60;;
7154;SDS011;3619;53.784;10.440;2023-12-20T17:57:18;70.83;;;68.20;;
7154;SDS011;3619;53.784;10.440;2023-12-20T18:00:14;76.73;;;73.93;;
7154;SDS011;3619;53.784;10.440;2023-12-20T18:02:58;71.63;;;68.93;;
7154;SDS011;3619;53.784;10.440;2023-12-20T18:05:28;75.67;;;72.87;;
7154;SDS011;3619;53.784;10.440;2023-12-20T18:08:15;79.87;;;76.97;;
7154;SDS011;3619;53.784;10.440;2023-12-20T18:10:50;86.27;;;83.17;;
7154;SDS011;3619;53.784;10.440;2023-12-20T18:14:06;83.53;;;80.50;;
7154;SDS011;3619;53.784;10.440;2023-12-20T18:16:41;82.17;;;79.07;;
7154;SDS011;3619;53.784;10.440;2023-12-20T18:20:57;72.97;;;70.27;;
7154;SDS011;3619;53.784;10.440;2023-12-20T18:22:27;71.93;;;69.23;;
7154;SDS011;3619;53.784;10.440;2023-12-20T18:25:10;73.70;;;70.93;;
7154;SDS011;3619;53.784;10.440;2023-12-20T18:28:03;81.17;;;78.17;;
7154;SDS011;3619;53.784;10.440;2023-12-20T18:30:50;82.30;;;79.30;;
7154;SDS011;3619;53.784;10.440;2023-12-20T18:33:29;81.73;;;78.73;;
7154;SDS011;3619;53.784;10.440;2023-12-20T18:36:24;94.07;;;90.63;;
7154;SDS011;3619;53.784;10.440;2023-12-20T18:38:57;93.10;;;89.70;;
7154;SDS011;3619;53.784;10.440;2023-12-20T18:41:47;102.87;;;99.13;;
7154;SDS011;3619;53.784;10.440;2023-12-20T18:44:29;107.60;;;103.70;;
7154;SDS011;3619;53.784;10.440;2023-12-20T18:46:59;110.20;;;106.20;;
7154;SDS011;3619;53.784;10.440;2023-12-20T18:49:34;110.73;;;106.73;;
7154;SDS011;3619;53.784;10.440;2023-12-20T18:52:17;107.53;;;103.63;;
7154;SDS011;3619;53.784;10.440;2023-12-20T18:55:10;109.57;;;105.57;;
7154;SDS011;3619;53.784;10.440;2023-12-20T18:57:42;117.00;;;112.80;;
7154;SDS011;3619;53.784;10.440;2023-12-20T19:01:32;119.70;;;115.40;;
7154;SDS011;3619;53.784;10.440;2023-12-20T19:03:10;127.90;;;123.30;;
7154;SDS011;3619;53.784;10.440;2023-12-20T19:05:41;118.83;;;114.53;;
7154;SDS011;3619;53.784;10.440;2023-12-20T19:08:16;121.87;;;117.47;;
7154;SDS011;3619;53.784;10.440;2023-12-20T19:10:59;130.53;;;125.93;;
7154;SDS011;3619;53.784;10.440;2023-12-20T19:16:10;124.77;;;120.33;;
7154;SDS011;3619;53.784;10.440;2023-12-20T19:18:55;128.83;;;124.20;;
7154;SDS011;3619;53.784;10.440;2023-12-20T19:21:28;123.33;;;118.90;;
7154;SDS011;3619;53.784;10.440;2023-12-20T19:24:13;109.93;;;105.93;;
7154;SDS011;3619;53.784;10.440;2023-12-20T19:26:49;102.93;;;99.17;;
7154;SDS011;3619;53.784;10.440;2023-12-20T19:32:09;93.23;;;89.83;;
7154;SDS011;3619;53.784;10.440;2023-12-20T19:34:39;92.97;;;89.57;;
7154;SDS011;3619;53.784;10.440;2023-12-20T19:37:10;94.80;;;91.30;;
7154;SDS011;3619;53.784;10.440;2023-12-20T19:39:44;84.63;;;81.53;;
7154;SDS011;3619;53.784;10.440;2023-12-20T19:42:12;83.03;;;79.93;;
7154;SDS011;3619;53.784;10.440;2023-12-20T19:44:40;76.80;;;73.90;;
7154;SDS011;3619;53.784;10.440;2023-12-20T19:47:08;85.33;;;82.17;;
7154;SDS011;3619;53.784;10.440;2023-12-20T19:49:35;81.17;;;78.17;;
7154;SDS011;3619;53.784;10.440;2023-12-20T19:52:04;90.70;;;87.40;;
7154;SDS011;3619;53.784;10.440;2023-12-20T19:54:34;80.93;;;77.93;;
7154;SDS011;3619;53.784;10.440;2023-12-20T19:57:02;74.17;;;71.37;;
7154;SDS011;3619;53.784;10.440;2023-12-20T19:59:30;77.73;;;74.83;;
7154;SDS011;3619;53.784;10.440;2023-12-20T20:02:05;80.43;;;77.43;;
7154;SDS011;3619;53.784;10.440;2023-12-20T20:04:35;80.33;;;77.33;;
7154;SDS011;3619;53.784;10.440;2023-12-20T20:07:03;75.37;;;71.83;;
7154;SDS011;3619;53.784;10.440;2023-12-20T20:09:35;73.93;;;71.13;;
7154;SDS011;3619;53.784;10.440;2023-12-20T20:12:02;76.53;;;73.67;;
7154;SDS011;3619;53.784;10.440;2023-12-20T20:14:35;76.53;;;73.67;;
7154;SDS011;3619;53.784;10.440;2023-12-20T20:17:08;76.43;;;73.57;;
7154;SDS011;3619;53.784;10.440;2023-12-20T20:19:38;78.37;;;75.47;;
7154;SDS011;3619;53.784;10.440;2023-12-20T20:22:07;72.90;;;70.20;;
7154;SDS011;3619;53.784;10.440;2023-12-20T20:24:38;74.23;;;71.43;;
7154;SDS011;3619;53.784;10.440;2023-12-20T20:27:07;78.53;;;75.57;;
7154;SDS011;3619;53.784;10.440;2023-12-20T20:29:34;72.70;;;69.93;;
7154;SDS011;3619;53.784;10.440;2023-12-20T20:32:06;69.47;;;66.80;;
7154;SDS011;3619;53.784;10.440;2023-12-20T20:34:33;75.77;;;72.87;;
7154;SDS011;3619;53.784;10.440;2023-12-20T20:37:01;75.43;;;72.57;;
7154;SDS011;3619;53.784;10.440;2023-12-20T20:39:29;71.77;;;69.07;;
7154;SDS011;3619;53.784;10.440;2023-12-20T20:41:56;71.47;;;68.77;;
7154;SDS011;3619;53.784;10.440;2023-12-20T20:44:23;68.73;;;66.13;;
7154;SDS011;3619;53.784;10.440;2023-12-20T20:46:51;69.70;;;67.00;;
7154;SDS011;3619;53.784;10.440;2023-12-20T20:49:19;77.70;;;74.80;;
7154;SDS011;3619;53.784;10.440;2023-12-20T20:51:49;71.90;;;69.17;;
7154;SDS011;3619;53.784;10.440;2023-12-20T20:54:17;74.10;;;71.30;;
7154;SDS011;3619;53.784;10.440;2023-12-20T20:56:45;77.57;;;74.63;;
7154;SDS011;3619;53.784;10.440;2023-12-20T20:59:14;80.93;;;77.90;;
7154;SDS011;3619;53.784;10.440;2023-12-20T21:01:50;78.83;;;75.83;;
7154;SDS011;3619;53.784;10.440;2023-12-20T21:04:17;82.13;;;79.03;;
7154;SDS011;3619;53.784;10.440;2023-12-20T21:06:55;78.57;;;75.57;;
7154;SDS011;3619;53.784;10.440;2023-12-20T21:09:24;78.97;;;75.97;;
7154;SDS011;3619;53.784;10.440;2023-12-20T21:11:54;84.97;;;81.77;;
7154;SDS011;3619;53.784;10.440;2023-12-20T21:14:31;80.93;;;77.90;;
7154;SDS011;3619;53.784;10.440;2023-12-20T21:17:01;81.57;;;78.50;;
7154;SDS011;3619;53.784;10.440;2023-12-20T21:19:35;82.90;;;79.80;;
7154;SDS011;3619;53.784;10.440;2023-12-20T21:22:31;91.07;;;87.67;;
7154;SDS011;3619;53.784;10.440;2023-12-20T21:25:24;90.80;;;87.40;;
7154;SDS011;3619;53.784;10.440;2023-12-20T21:28:18;86.67;;;83.47;;
7154;SDS011;3619;53.784;10.440;2023-12-20T21:32:28;96.70;;;93.10;;
7154;SDS011;3619;53.784;10.440;2023-12-20T21:34:39;94.53;;;91.03;;
7154;SDS011;3619;53.784;10.440;2023-12-20T21:37:24;99.53;;;95.87;;
7154;SDS011;3619;53.784;10.440;2023-12-20T21:40:08;108.63;;;104.67;;
7154;SDS011;3619;53.784;10.440;2023-12-20T21:43:34;103.43;;;99.67;;
7154;SDS011;3619;53.784;10.440;2023-12-20T21:49:28;106.33;;;102.53;;
7154;SDS011;3619;53.784;10.440;2023-12-20T21:51:55;92.80;;;89.40;;
7154;SDS011;3619;53.784;10.440;2023-12-20T21:54:53;95.90;;;92.40;;
7154;SDS011;3619;53.784;10.440;2023-12-20T21:57:49;91.27;;;87.97;;
7154;SDS011;3619;53.784;10.440;2023-12-20T22:00:25;93.83;;;90.43;;
7154;SDS011;3619;53.784;10.440;2023-12-20T22:02:52;94.13;;;90.73;;
7154;SDS011;3619;53.784;10.440;2023-12-20T22:05:59;112.63;;;108.63;;
7154;SDS011;3619;53.784;10.440;2023-12-20T22:08:36;105.67;;;101.87;;
7154;SDS011;3619;53.784;10.440;2023-12-20T22:11:05;100.00;;;96.40;;
7154;SDS011;3619;53.784;10.440;2023-12-20T22:13:39;100.60;;;97.00;;
7154;SDS011;3619;53.784;10.440;2023-12-20T22:16:09;95.63;;;92.23;;